Terminal Aerodrome Forecast
Issued by NWS

Home | Current Version | Previous Version | Graphics & Text | Print | Product List | Glossary On
Versions: 1 2 3 4 5 6 7 8 9 10 11 12 13 14 15
000
FTUS43 KTOP 101120
TAFMHK
TAF
KMHK 101120Z 1012/1112 13005KT P6SM BKN035
     FM101800 17014G20KT P6SM BKN050
     FM110200 17008KT P6SM SCT050
     FM110800 18010KT P6M BKN015=

USA.gov is the U.S. government's official web portal to all federal, state and local government web resources and services.